Arlington, New Jersey
Current Conditions -  °F | °C
As of 9:51 PM on Thursday 20 Nov 2014 (Local Time) from KEWR Reporting Station
Few Clouds Few Clouds  
Wind Chill: 22°   Ceiling: Unl
Heat Index: 33°   Visibility: 10mi
Dew Point:   Wind: 17mph
Humidity: 37%   Direction: 280°W
Pressure: 30"   Gusts: 25mph
Location:  40.7563°N, 74.1217°W
Report Text: KEWR 210251Z 28015G22KT 10SM FEW060 01/M13 A3000 RMK AO2 SLP159 T00061128 53022 $
Loading
Personal Weather Stations






























Interactive Weather Map New forecast layout! Learn more

10-Day Weather Forecast

Advertisements
Track Severe Weather on mobile